sensor_id;sensor_type;location;lat;lon;timestamp;pressure;altitude;pressure_sealevel;temperature;humidity
31082;BME280;17737;52.586;13.284;2022-12-20T00:00:15;101362.53;;;3.43;90.61
31082;BME280;17737;52.586;13.284;2022-12-20T00:02:43;101360.50;;;3.46;90.29
31082;BME280;17737;52.586;13.284;2022-12-20T00:05:11;101361.69;;;3.42;90.44
31082;BME280;17737;52.586;13.284;2022-12-20T00:07:39;101374.28;;;3.40;90.48
31082;BME280;17737;52.586;13.284;2022-12-20T00:10:09;101370.00;;;3.50;90.41
31082;BME280;17737;52.586;13.284;2022-12-20T00:12:37;101365.97;;;3.45;90.47
31082;BME280;17737;52.586;13.284;2022-12-20T00:15:05;101360.31;;;3.37;91.00
31082;BME280;17737;52.586;13.284;2022-12-20T00:17:33;101362.22;;;3.47;90.53
31082;BME280;17737;52.586;13.284;2022-12-20T00:20:01;101363.63;;;3.40;90.76
31082;BME280;17737;52.586;13.284;2022-12-20T00:22:29;101366.06;;;3.43;90.25
31082;BME280;17737;52.586;13.284;2022-12-20T00:24:57;101358.06;;;3.43;90.38
31082;BME280;17737;52.586;13.284;2022-12-20T00:27:26;101344.34;;;3.37;90.62
31082;BME280;17737;52.586;13.284;2022-12-20T00:29:55;101344.53;;;3.34;90.86
31082;BME280;17737;52.586;13.284;2022-12-20T00:32:23;101333.25;;;3.30;90.72
31082;BME280;17737;52.586;13.284;2022-12-20T00:34:50;101329.97;;;3.27;90.87
31082;BME280;17737;52.586;13.284;2022-12-20T00:37:18;101333.88;;;3.34;90.79
31082;BME280;17737;52.586;13.284;2022-12-20T00:39:46;101339.97;;;3.36;90.25
31082;BME280;17737;52.586;13.284;2022-12-20T00:42:14;101334.84;;;3.33;90.28
31082;BME280;17737;52.586;13.284;2022-12-20T00:44:43;101337.84;;;3.28;90.50
31082;BME280;17737;52.586;13.284;2022-12-20T00:47:11;101340.72;;;3.25;90.50
31082;BME280;17737;52.586;13.284;2022-12-20T00:49:39;101337.84;;;3.28;90.30
31082;BME280;17737;52.586;13.284;2022-12-20T00:52:07;101334.84;;;3.20;90.45
31082;BME280;17737;52.586;13.284;2022-12-20T00:54:35;101326.44;;;3.26;90.32
31082;BME280;17737;52.586;13.284;2022-12-20T00:57:03;101344.13;;;3.27;90.33
31082;BME280;17737;52.586;13.284;2022-12-20T00:59:31;101355.81;;;3.37;89.97
31082;BME280;17737;52.586;13.284;2022-12-20T01:02:01;101353.16;;;3.37;89.94
31082;BME280;17737;52.586;13.284;2022-12-20T01:04:29;101347.09;;;3.35;89.88
31082;BME280;17737;52.586;13.284;2022-12-20T01:06:57;101352.22;;;3.38;89.77
31082;BME280;17737;52.586;13.284;2022-12-20T01:09:25;101352.00;;;3.41;89.79
31082;BME280;17737;52.586;13.284;2022-12-20T01:11:52;101345.50;;;3.45;89.59
31082;BME280;17737;52.586;13.284;2022-12-20T01:14:20;101345.19;;;3.37;89.58
31082;BME280;17737;52.586;13.284;2022-12-20T01:16:48;101333.25;;;3.43;89.47
31082;BME280;17737;52.586;13.284;2022-12-20T01:19:17;101345.50;;;3.45;89.10
31082;BME280;17737;52.586;13.284;2022-12-20T01:21:45;101346.22;;;3.47;89.31
31082;BME280;17737;52.586;13.284;2022-12-20T01:24:16;101337.69;;;3.55;88.83
31082;BME280;17737;52.586;13.284;2022-12-20T01:26:44;101342.28;;;3.53;88.98
31082;BME280;17737;52.586;13.284;2022-12-20T01:29:13;101335.16;;;3.53;88.57
31082;BME280;17737;52.586;13.284;2022-12-20T01:31:41;101350.78;;;3.58;88.24
31082;BME280;17737;52.586;13.284;2022-12-20T01:34:10;101342.63;;;3.48;88.84
31082;BME280;17737;52.586;13.284;2022-12-20T01:36:40;101335.16;;;3.53;88.44
31082;BME280;17737;52.586;13.284;2022-12-20T01:39:11;101332.78;;;3.61;88.24
31082;BME280;17737;52.586;13.284;2022-12-20T01:41:40;101327.16;;;3.53;87.99
31082;BME280;17737;52.586;13.284;2022-12-20T01:47:11;101326.00;;;3.57;88.12
31082;BME280;17737;52.586;13.284;2022-12-20T01:49:43;101317.19;;;3.68;87.65
31082;BME280;17737;52.586;13.284;2022-12-20T01:52:16;101321.81;;;3.66;87.83
31082;BME280;17737;52.586;13.284;2022-12-20T01:54:49;101328.97;;;3.53;88.08
31082;BME280;17737;52.586;13.284;2022-12-20T01:57:21;101320.56;;;3.46;88.34
31082;BME280;17737;52.586;13.284;2022-12-20T01:59:51;101321.09;;;3.51;88.25
31082;BME280;17737;52.586;13.284;2022-12-20T02:02:20;101319.06;;;3.42;88.61
31082;BME280;17737;52.586;13.284;2022-12-20T02:04:49;101317.25;;;3.43;88.56
31082;BME280;17737;52.586;13.284;2022-12-20T02:07:24;101318.75;;;3.47;88.22
31082;BME280;17737;52.586;13.284;2022-12-20T02:09:56;101316.22;;;3.45;88.16
31082;BME280;17737;52.586;13.284;2022-12-20T02:12:25;101319.16;;;3.53;87.82
31082;BME280;17737;52.586;13.284;2022-12-20T02:15:02;101323.31;;;3.57;87.76
31082;BME280;17737;52.586;13.284;2022-12-20T02:17:40;101322.34;;;3.58;87.83
31082;BME280;17737;52.586;13.284;2022-12-20T02:23:36;101320.84;;;3.67;87.45
31082;BME280;17737;52.586;13.284;2022-12-20T02:26:30;101329.81;;;3.66;87.42
31082;BME280;17737;52.586;13.284;2022-12-20T02:29:14;101329.34;;;3.72;87.30
31082;BME280;17737;52.586;13.284;2022-12-20T02:31:51;101320.50;;;3.72;87.44
31082;BME280;17737;52.586;13.284;2022-12-20T02:34:22;101318.69;;;3.72;87.49
31082;BME280;17737;52.586;13.284;2022-12-20T02:36:51;101322.28;;;3.84;87.01
31082;BME280;17737;52.586;13.284;2022-12-20T02:39:22;101323.53;;;3.91;86.99
31082;BME280;17737;52.586;13.284;2022-12-20T02:41:53;101310.59;;;3.74;87.34
31082;BME280;17737;52.586;13.284;2022-12-20T02:44:25;101295.69;;;3.71;88.18
31082;BME280;17737;52.586;13.284;2022-12-20T02:47:19;101295.88;;;3.68;88.40
31082;BME280;17737;52.586;13.284;2022-12-20T02:49:48;101281.16;;;3.75;88.13
31082;BME280;17737;52.586;13.284;2022-12-20T02:52:19;101293.47;;;3.89;87.62
31082;BME280;17737;52.586;13.284;2022-12-20T02:54:48;101285.59;;;3.87;87.24
31082;BME280;17737;52.586;13.284;2022-12-20T02:57:20;101290.81;;;3.89;86.88
31082;BME280;17737;52.586;13.284;2022-12-20T02:59:55;101262.78;;;3.83;87.53
31082;BME280;17737;52.586;13.284;2022-12-20T03:02:26;101260.47;;;3.79;87.80
31082;BME280;17737;52.586;13.284;2022-12-20T03:04:56;101266.25;;;3.73;87.55
31082;BME280;17737;52.586;13.284;2022-12-20T03:07:28;101263.88;;;3.81;87.26
31082;BME280;17737;52.586;13.284;2022-12-20T03:09:56;101262.38;;;3.77;87.38
31082;BME280;17737;52.586;13.284;2022-12-20T03:12:24;101263.88;;;3.81;87.43
31082;BME280;17737;52.586;13.284;2022-12-20T03:14:52;101259.28;;;3.83;87.34
31082;BME280;17737;52.586;13.284;2022-12-20T03:17:19;101260.81;;;3.74;87.50
31082;BME280;17737;52.586;13.284;2022-12-20T03:19:49;101262.38;;;3.77;87.38
31082;BME280;17737;52.586;13.284;2022-12-20T03:22:16;101272.94;;;3.78;87.48
31082;BME280;17737;52.586;13.284;2022-12-20T03:24:44;101277.53;;;4.00;86.55
31082;BME280;17737;52.586;13.284;2022-12-20T03:27:12;101287.00;;;4.04;86.05
31082;BME280;17737;52.586;13.284;2022-12-20T03:29:40;101289.47;;;4.07;86.14
31082;BME280;17737;52.586;13.284;2022-12-20T03:32:08;101287.97;;;4.03;86.74
31082;BME280;17737;52.586;13.284;2022-12-20T03:34:35;101273.56;;;4.05;86.41
31082;BME280;17737;52.586;13.284;2022-12-20T03:37:05;101276.13;;;4.07;85.89
31082;BME280;17737;52.586;13.284;2022-12-20T03:39:32;101289.78;;;4.02;86.87
31082;BME280;17737;52.586;13.284;2022-12-20T03:42:00;101272.09;;;4.01;86.52
31082;BME280;17737;52.586;13.284;2022-12-20T03:44:28;101283.94;;;3.97;86.49
31082;BME280;17737;52.586;13.284;2022-12-20T03:46:56;101281.56;;;3.82;86.68
31082;BME280;17737;52.586;13.284;2022-12-20T03:49:24;101279.34;;;3.76;87.32
31082;BME280;17737;52.586;13.284;2022-12-20T03:51:51;101273.03;;;3.77;87.35
31082;BME280;17737;52.586;13.284;2022-12-20T03:54:21;101269.63;;;3.75;86.83
31082;BME280;17737;52.586;13.284;2022-12-20T03:56:49;101268.19;;;3.71;87.30
31082;BME280;17737;52.586;13.284;2022-12-20T03:59:17;101259.56;;;3.54;88.09
31082;BME280;17737;52.586;13.284;2022-12-20T04:01:44;101269.94;;;3.83;86.92
31082;BME280;17737;52.586;13.284;2022-12-20T04:04:13;101277.16;;;3.93;86.27
31082;BME280;17737;52.586;13.284;2022-12-20T04:06:41;101277.47;;;3.89;86.70
31082;BME280;17737;52.586;13.284;2022-12-20T04:09:09;101282.75;;;3.78;86.94
31082;BME280;17737;52.586;13.284;2022-12-20T04:11:38;101279.13;;;3.79;86.98
31082;BME280;17737;52.586;13.284;2022-12-20T04:14:06;101277.09;;;3.82;86.88
31082;BME280;17737;52.586;13.284;2022-12-20T04:16:34;101274.97;;;3.75;87.54
31082;BME280;17737;52.586;13.284;2022-12-20T04:19:02;101266.28;;;3.60;88.22
31082;BME280;17737;52.586;13.284;2022-12-20T04:21:32;101265.88;;;3.53;88.38
31082;BME280;17737;52.586;13.284;2022-12-20T04:24:00;101264.91;;;3.54;88.18
31082;BME280;17737;52.586;13.284;2022-12-20T04:26:29;101273.31;;;3.61;88.17
31082;BME280;17737;52.586;13.284;2022-12-20T04:28:58;101272.72;;;3.81;87.36
31082;BME280;17737;52.586;13.284;2022-12-20T04:31:26;101260.47;;;3.79;87.30
31082;BME280;17737;52.586;13.284;2022-12-20T04:33:57;101254.97;;;3.69;87.69
31082;BME280;17737;52.586;13.284;2022-12-20T04:36:25;101260.31;;;3.56;88.08
31082;BME280;17737;52.586;13.284;2022-12-20T04:38:53;101259.06;;;3.86;87.28
31082;BME280;17737;52.586;13.284;2022-12-20T04:41:21;101258.53;;;3.57;88.03
31082;BME280;17737;52.586;13.284;2022-12-20T04:43:50;101253.63;;;3.75;87.57
31082;BME280;17737;52.586;13.284;2022-12-20T04:46:20;101253.44;;;3.78;87.54
31082;BME280;17737;52.586;13.284;2022-12-20T04:48:48;101244.34;;;3.56;88.20
31082;BME280;17737;52.586;13.284;2022-12-20T04:51:25;101235.88;;;3.39;88.94
31082;BME280;17737;52.586;13.284;2022-12-20T04:53:54;101248.63;;;3.46;88.56
31082;BME280;17737;52.586;13.284;2022-12-20T04:56:22;101250.19;;;3.61;88.02
31082;BME280;17737;52.586;13.284;2022-12-20T04:58:52;101246.59;;;3.50;88.70
31082;BME280;17737;52.586;13.284;2022-12-20T05:01:21;101251.97;;;3.37;89.08
31082;BME280;17737;52.586;13.284;2022-12-20T05:03:50;101250.31;;;3.47;88.73
31082;BME280;17737;52.586;13.284;2022-12-20T05:06:18;101247.84;;;3.33;89.23
31082;BME280;17737;52.586;13.284;2022-12-20T05:08:46;101250.53;;;3.57;88.78
31082;BME280;17737;52.586;13.284;2022-12-20T05:11:14;101263.91;;;3.68;88.29
31082;BME280;17737;52.586;13.284;2022-12-20T05:13:42;101262.75;;;3.59;88.30
31082;BME280;17737;52.586;13.284;2022-12-20T05:16:10;101261.56;;;3.76;87.78
31082;BME280;17737;52.586;13.284;2022-12-20T05:18:39;101247.28;;;3.64;88.52
31082;BME280;17737;52.586;13.284;2022-12-20T05:21:14;101240.00;;;3.55;88.78
31082;BME280;17737;52.586;13.284;2022-12-20T05:23:59;101229.88;;;3.48;88.95
31082;BME280;17737;52.586;13.284;2022-12-20T05:26:44;101228.34;;;3.56;88.64
31082;BME280;17737;52.586;13.284;2022-12-20T05:29:12;101236.22;;;3.58;88.33
31082;BME280;17737;52.586;13.284;2022-12-20T05:31:42;101235.97;;;3.74;87.86
31082;BME280;17737;52.586;13.284;2022-12-20T05:34:11;101231.78;;;3.82;87.28
31082;BME280;17737;52.586;13.284;2022-12-20T05:36:39;101240.75;;;3.81;87.51
31082;BME280;17737;52.586;13.284;2022-12-20T05:39:07;101218.78;;;3.78;87.17
31082;BME280;17737;52.586;13.284;2022-12-20T05:41:37;101220.72;;;3.76;87.63
31082;BME280;17737;52.586;13.284;2022-12-20T05:44:06;101219.19;;;3.84;87.37
31082;BME280;17737;52.586;13.284;2022-12-20T05:46:34;101222.97;;;3.93;87.41
31082;BME280;17737;52.586;13.284;2022-12-20T05:49:02;101237.50;;;3.89;87.59
31082;BME280;17737;52.586;13.284;2022-12-20T05:51:31;101243.31;;;3.94;87.19
31082;BME280;17737;52.586;13.284;2022-12-20T05:53:59;101236.97;;;4.07;87.15
31082;BME280;17737;52.586;13.284;2022-12-20T05:56:27;101228.06;;;3.96;87.95
31082;BME280;17737;52.586;13.284;2022-12-20T05:58:55;101219.69;;;3.89;88.61
31082;BME280;17737;52.586;13.284;2022-12-20T06:01:24;101214.81;;;3.83;88.25
31082;BME280;17737;52.586;13.284;2022-12-20T06:03:52;101221.84;;;3.84;88.26
31082;BME280;17737;52.586;13.284;2022-12-20T06:06:20;101226.28;;;3.96;87.73
31082;BME280;17737;52.586;13.284;2022-12-20T06:08:49;101226.59;;;3.92;87.54
31082;BME280;17737;52.586;13.284;2022-12-20T06:11:17;101238.97;;;3.93;88.09
31082;BME280;17737;52.586;13.284;2022-12-20T06:13:51;101238.56;;;4.10;87.55
31082;BME280;17737;52.586;13.284;2022-12-20T06:16:19;101243.22;;;4.19;86.73
31082;BME280;17737;52.586;13.284;2022-12-20T06:18:48;101243.44;;;4.16;86.88
31082;BME280;17737;52.586;13.284;2022-12-20T06:21:16;101241.47;;;4.07;87.62
31082;BME280;17737;52.586;13.284;2022-12-20T06:23:44;101244.16;;;4.18;87.42
31082;BME280;17737;52.586;13.284;2022-12-20T06:26:14;101245.81;;;4.08;87.76
31082;BME280;17737;52.586;13.284;2022-12-20T06:28:42;101243.16;;;4.08;88.18
31082;BME280;17737;52.586;13.284;2022-12-20T06:31:10;101246.56;;;4.10;88.43
31082;BME280;17737;52.586;13.284;2022-12-20T06:33:38;101242.41;;;4.06;88.63
31082;BME280;17737;52.586;13.284;2022-12-20T06:36:06;101235.91;;;4.10;88.46
31082;BME280;17737;52.586;13.284;2022-12-20T06:38:34;101234.66;;;4.03;88.92
31082;BME280;17737;52.586;13.284;2022-12-20T06:41:02;101231.25;;;4.01;89.57
31082;BME280;17737;52.586;13.284;2022-12-20T06:43:31;101233.69;;;4.04;89.31
31082;BME280;17737;52.586;13.284;2022-12-20T06:45:59;101242.69;;;4.14;89.24
31082;BME280;17737;52.586;13.284;2022-12-20T06:48:28;101245.59;;;4.11;89.15
31082;BME280;17737;52.586;13.284;2022-12-20T06:50:56;101243.16;;;4.08;89.95
31082;BME280;17737;52.586;13.284;2022-12-20T06:53:24;101231.00;;;4.04;90.47
31082;BME280;17737;52.586;13.284;2022-12-20T06:55:52;101243.41;;;4.05;90.40
31082;BME280;17737;52.586;13.284;2022-12-20T06:58:20;101250.28;;;4.07;90.83
31082;BME280;17737;52.586;13.284;2022-12-20T07:00:49;101244.13;;;4.07;90.39
31082;BME280;17737;52.586;13.284;2022-12-20T07:03:17;101247.81;;;4.17;90.36
31082;BME280;17737;52.586;13.284;2022-12-20T07:05:50;101254.44;;;4.11;90.56
31082;BME280;17737;52.586;13.284;2022-12-20T07:08:18;101244.13;;;4.07;91.21
31082;BME280;17737;52.586;13.284;2022-12-20T07:10:46;101255.34;;;4.23;90.99
31082;BME280;17737;52.586;13.284;2022-12-20T07:13:14;101264.81;;;4.27;90.24
31082;BME280;17737;52.586;13.284;2022-12-20T07:15:43;101264.34;;;4.33;90.21
31082;BME280;17737;52.586;13.284;2022-12-20T07:18:12;101273.31;;;4.32;90.58
31082;BME280;17737;52.586;13.284;2022-12-20T07:20:40;101276.16;;;4.18;91.22
31082;BME280;17737;52.586;13.284;2022-12-20T07:23:08;101282.91;;;4.34;90.92
31082;BME280;17737;52.586;13.284;2022-12-20T07:25:35;101279.22;;;4.24;91.42
31082;BME280;17737;52.586;13.284;2022-12-20T07:28:03;101284.50;;;4.37;91.08
31082;BME280;17737;52.586;13.284;2022-12-20T07:30:32;101296.28;;;4.45;91.05
31082;BME280;17737;52.586;13.284;2022-12-20T07:33:00;101298.72;;;4.48;91.02
31082;BME280;17737;52.586;13.284;2022-12-20T07:35:29;101293.63;;;4.45;91.16
31082;BME280;17737;52.586;13.284;2022-12-20T07:37:57;101297.56;;;4.29;91.90
31082;BME280;17737;52.586;13.284;2022-12-20T07:40:25;101301.81;;;4.31;92.29
31082;BME280;17737;52.586;13.284;2022-12-20T07:42:53;101290.81;;;4.36;91.68
31082;BME280;17737;52.586;13.284;2022-12-20T07:45:21;101300.03;;;4.43;92.19
31082;BME280;17737;52.586;13.284;2022-12-20T07:47:49;101290.06;;;4.34;92.14
31082;BME280;17737;52.586;13.284;2022-12-20T07:50:17;101287.41;;;4.34;92.30
31082;BME280;17737;52.586;13.284;2022-12-20T07:52:47;101287.59;;;4.31;92.80
31082;BME280;17737;52.586;13.284;2022-12-20T07:55:16;101283.00;;;4.33;93.37
31082;BME280;17737;52.586;13.284;2022-12-20T07:57:46;101297.09;;;4.35;93.04
31082;BME280;17737;52.586;13.284;2022-12-20T08:00:16;101284.25;;;4.40;92.96
31082;BME280;17737;52.586;13.284;2022-12-20T08:02:48;101287.66;;;4.42;92.40
31082;BME280;17737;52.586;13.284;2022-12-20T08:05:17;101292.25;;;4.40;92.79
31082;BME280;17737;52.586;13.284;2022-12-20T08:07:47;101280.84;;;4.38;93.01
31082;BME280;17737;52.586;13.284;2022-12-20T08:10:24;101284.50;;;4.37;92.92
31082;BME280;17737;52.586;13.284;2022-12-20T08:12:52;101285.97;;;4.41;93.29
31082;BME280;17737;52.586;13.284;2022-12-20T08:15:21;101286.97;;;4.51;92.71
31082;BME280;17737;52.586;13.284;2022-12-20T08:17:49;101277.63;;;4.45;92.95
31082;BME280;17737;52.586;13.284;2022-12-20T08:20:17;101283.81;;;4.46;92.96
31082;BME280;17737;52.586;13.284;2022-12-20T08:22:47;101286.84;;;4.52;92.66
31082;BME280;17737;52.586;13.284;2022-12-20T08:25:15;101283.56;;;4.49;92.93
31082;BME280;17737;52.586;13.284;2022-12-20T08:27:43;101289.97;;;4.46;93.12
31082;BME280;17737;52.586;13.284;2022-12-20T08:30:11;101285.25;;;4.50;93.36
31082;BME280;17737;52.586;13.284;2022-12-20T08:32:40;101276.75;;;4.45;93.52
31082;BME280;17737;52.586;13.284;2022-12-20T08:35:09;101273.16;;;4.57;93.35
31082;BME280;17737;52.586;13.284;2022-12-20T08:37:38;101262.22;;;4.60;93.14
31082;BME280;17737;52.586;13.284;2022-12-20T08:40:08;101270.66;;;4.66;93.26
31082;BME280;17737;52.586;13.284;2022-12-20T08:42:36;101268.94;;;4.65;93.10
31082;BME280;17737;52.586;13.284;2022-12-20T08:45:05;101267.00;;;4.67;93.12
31082;BME280;17737;52.586;13.284;2022-12-20T08:47:33;101270.03;;;4.63;93.28
31082;BME280;17737;52.586;13.284;2022-12-20T08:50:01;101273.19;;;4.68;92.98
31082;BME280;17737;52.586;13.284;2022-12-20T08:52:29;101257.91;;;4.81;93.03
31082;BME280;17737;52.586;13.284;2022-12-20T08:54:56;101253.53;;;4.69;92.67
31082;BME280;17737;52.586;13.284;2022-12-20T08:57:28;101259.47;;;4.72;93.33
31082;BME280;17737;52.586;13.284;2022-12-20T08:59:56;101258.41;;;4.75;92.85
31082;BME280;17737;52.586;13.284;2022-12-20T09:02:25;101261.28;;;4.72;92.89
31082;BME280;17737;52.586;13.284;2022-12-20T09:04:53;101259.00;;;4.78;93.00
31082;BME280;17737;52.586;13.284;2022-12-20T09:07:21;101259.47;;;4.83;92.84
31082;BME280;17737;52.586;13.284;2022-12-20T09:09:49;101261.94;;;4.86;92.62
31082;BME280;17737;52.586;13.284;2022-12-20T09:12:16;101259.03;;;4.89;93.15
31082;BME280;17737;52.586;13.284;2022-12-20T09:14:46;101256.34;;;5.01;93.09
31082;BME280;17737;52.586;13.284;2022-12-20T09:17:13;101253.59;;;5.02;92.90
31082;BME280;17737;52.586;13.284;2022-12-20T09:19:41;101251.38;;;5.18;92.53
31082;BME280;17737;52.586;13.284;2022-12-20T09:22:09;101246.16;;;5.17;92.85
31082;BME280;17737;52.586;13.284;2022-12-20T09:24:37;101240.94;;;5.26;92.82
31082;BME280;17737;52.586;13.284;2022-12-20T09:27:04;101228.31;;;5.39;92.40
31082;BME280;17737;52.586;13.284;2022-12-20T09:29:32;101245.03;;;5.52;92.13
31082;BME280;17737;52.586;13.284;2022-12-20T09:32:03;101235.28;;;5.62;91.43
31082;BME280;17737;52.586;13.284;2022-12-20T09:34:30;101248.78;;;5.72;90.68
31082;BME280;17737;52.586;13.284;2022-12-20T09:36:58;101242.59;;;5.60;91.46
31082;BME280;17737;52.586;13.284;2022-12-20T09:39:26;101244.03;;;5.64;91.65
31082;BME280;17737;52.586;13.284;2022-12-20T09:41:54;101250.69;;;5.81;91.14
31082;BME280;17737;52.586;13.284;2022-12-20T09:44:24;101248.41;;;5.65;91.65
31082;BME280;17737;52.586;13.284;2022-12-20T09:46:56;101244.03;;;5.64;91.73
31082;BME280;17737;52.586;13.284;2022-12-20T09:49:36;101235.28;;;5.62;91.64
31082;BME280;17737;52.586;13.284;2022-12-20T09:52:24;101242.84;;;5.68;91.22
31082;BME280;17737;52.586;13.284;2022-12-20T09:55:01;101240.25;;;5.78;91.37
31082;BME280;17737;52.586;13.284;2022-12-20T09:57:47;101235.28;;;5.84;90.80
31082;BME280;17737;52.586;13.284;2022-12-20T10:00:19;101226.09;;;5.98;90.96
31082;BME280;17737;52.586;13.284;2022-12-20T10:02:48;101231.31;;;5.99;90.72
31082;BME280;17737;52.586;13.284;2022-12-20T10:05:40;101229.00;;;6.06;90.83
31082;BME280;17737;52.586;13.284;2022-12-20T10:08:18;101228.50;;;6.12;90.56
31082;BME280;17737;52.586;13.284;2022-12-20T10:10:53;101240.19;;;6.11;90.26
31082;BME280;17737;52.586;13.284;2022-12-20T10:13:47;101244.53;;;6.12;90.84
31082;BME280;17737;52.586;13.284;2022-12-20T10:16:31;101230.91;;;6.15;91.08
31082;BME280;17737;52.586;13.284;2022-12-20T10:19:07;101233.31;;;6.18;90.76
31082;BME280;17737;52.586;13.284;2022-12-20T10:21:46;101222.69;;;6.28;90.04
31082;BME280;17737;52.586;13.284;2022-12-20T10:24:19;101213.19;;;6.35;89.95
31082;BME280;17737;52.586;13.284;2022-12-20T10:26:49;101210.50;;;6.35;90.12
31082;BME280;17737;52.586;13.284;2022-12-20T10:29:18;101210.38;;;6.36;90.47
31082;BME280;17737;52.586;13.284;2022-12-20T10:31:48;101197.59;;;6.40;89.63
31082;BME280;17737;52.586;13.284;2022-12-20T10:34:17;101185.56;;;6.34;90.19
31082;BME280;17737;52.586;13.284;2022-12-20T10:36:48;101176.91;;;6.42;89.81
31082;BME280;17737;52.586;13.284;2022-12-20T10:39:16;101182.63;;;6.37;90.18
31082;BME280;17737;52.586;13.284;2022-12-20T10:42:23;101170.81;;;6.40;89.94
31082;BME280;17737;52.586;13.284;2022-12-20T10:44:52;101168.72;;;6.43;89.62
31082;BME280;17737;52.586;13.284;2022-12-20T10:47:30;101173.38;;;6.41;89.65
31082;BME280;17737;52.586;13.284;2022-12-20T10:50:23;101163.06;;;6.37;90.63
31082;BME280;17737;52.586;13.284;2022-12-20T10:53:12;101161.78;;;6.41;90.05
31082;BME280;17737;52.586;13.284;2022-12-20T10:55:43;101163.50;;;6.42;89.83
31082;BME280;17737;52.586;13.284;2022-12-20T10:58:14;101150.72;;;6.45;89.98
31082;BME280;17737;52.586;13.284;2022-12-20T11:00:43;101135.63;;;6.44;90.73
31082;BME280;17737;52.586;13.284;2022-12-20T11:03:14;101131.50;;;6.40;90.48
31082;BME280;17737;52.586;13.284;2022-12-20T11:05:54;101126.63;;;6.45;90.02
31082;BME280;17737;52.586;13.284;2022-12-20T11:08:25;101113.25;;;6.45;90.26
31082;BME280;17737;52.586;13.284;2022-12-20T11:11:15;101126.72;;;6.44;90.18
31082;BME280;17737;52.586;13.284;2022-12-20T11:13:45;101134.09;;;6.51;89.47
31082;BME280;17737;52.586;13.284;2022-12-20T11:16:25;101102.72;;;6.53;89.76
31082;BME280;17737;52.586;13.284;2022-12-20T11:19:00;101096.50;;;6.53;89.53
31082;BME280;17737;52.586;13.284;2022-12-20T11:21:36;101109.59;;;6.56;89.63
31082;BME280;17737;52.586;13.284;2022-12-20T11:24:13;101112.72;;;6.61;89.95
31082;BME280;17737;52.586;13.284;2022-12-20T11:29:58;101113.13;;;6.86;87.94
31082;BME280;17737;52.586;13.284;2022-12-20T11:32:41;101103.38;;;6.76;88.80
31082;BME280;17737;52.586;13.284;2022-12-20T11:35:18;101102.81;;;6.82;88.07
31082;BME280;17737;52.586;13.284;2022-12-20T11:37:55;101105.34;;;6.83;88.60
31082;BME280;17737;52.586;13.284;2022-12-20T11:40:42;101107.22;;;6.92;88.31
31082;BME280;17737;52.586;13.284;2022-12-20T11:43:25;101095.44;;;7.14;87.49
31082;BME280;17737;52.586;13.284;2022-12-20T11:46:04;101092.91;;;7.12;87.84
31082;BME280;17737;52.586;13.284;2022-12-20T11:48:56;101086.28;;;7.16;88.08
31082;BME280;17737;52.586;13.284;2022-12-20T11:51:34;101081.78;;;7.26;87.27
31082;BME280;17737;52.586;13.284;2022-12-20T11:54:10;101087.00;;;7.28;86.48
31082;BME280;17737;52.586;13.284;2022-12-20T11:56:43;101072.31;;;7.22;86.75
31082;BME280;17737;52.586;13.284;2022-12-20T11:59:19;101074.88;;;7.34;86.28
31082;BME280;17737;52.586;13.284;2022-12-20T12:01:52;101077.69;;;7.22;86.43
31082;BME280;17737;52.586;13.284;2022-12-20T12:04:25;101075.13;;;7.21;86.56
31082;BME280;17737;52.586;13.284;2022-12-20T12:06:58;101085.56;;;7.24;86.54
31082;BME280;17737;52.586;13.284;2022-12-20T12:09:32;101077.97;;;7.29;86.71
31082;BME280;17737;52.586;13.284;2022-12-20T12:12:09;101076.00;;;7.31;86.41
31082;BME280;17737;52.586;13.284;2022-12-20T12:14:49;101072.03;;;7.25;86.89
31082;BME280;17737;52.586;13.284;2022-12-20T12:17:23;101076.56;;;7.25;86.36
31082;BME280;17737;52.586;13.284;2022-12-20T12:19:55;101065.28;;;7.21;86.28
31082;BME280;17737;52.586;13.284;2022-12-20T12:22:31;101057.38;;;7.20;86.66
31082;BME280;17737;52.586;13.284;2022-12-20T12:25:04;101053.41;;;7.24;86.23
31082;BME280;17737;52.586;13.284;2022-12-20T12:27:39;101052.28;;;7.17;86.66
31082;BME280;17737;52.586;13.284;2022-12-20T12:30:11;101055.81;;;7.17;86.67
31082;BME280;17737;52.586;13.284;2022-12-20T12:32:43;101047.19;;;7.14;86.60
31082;BME280;17737;52.586;13.284;2022-12-20T12:35:23;101046.81;;;7.28;85.77
31082;BME280;17737;52.586;13.284;2022-12-20T12:38:14;101047.09;;;7.25;86.09
31082;BME280;17737;52.586;13.284;2022-12-20T12:40:56;101041.59;;;7.26;85.87
31082;BME280;17737;52.586;13.284;2022-12-20T12:43:43;101030.44;;;7.21;86.49
31082;BME280;17737;52.586;13.284;2022-12-20T12:46:13;101032.13;;;7.22;86.43
31082;BME280;17737;52.586;13.284;2022-12-20T12:48:45;101022.69;;;7.28;86.33
31082;BME280;17737;52.586;13.284;2022-12-20T12:51:21;101011.38;;;7.34;86.12
31082;BME280;17737;52.586;13.284;2022-12-20T12:53:52;101010.84;;;7.40;85.92
31082;BME280;17737;52.586;13.284;2022-12-20T12:56:38;101013.50;;;7.40;86.23
31082;BME280;17737;52.586;13.284;2022-12-20T13:02:34;101014.22;;;7.52;85.04
31082;BME280;17737;52.586;13.284;2022-12-20T13:05:31;101008.13;;;7.50;85.36
31082;BME280;17737;52.586;13.284;2022-12-20T13:08:00;101012.53;;;7.51;84.62
31082;BME280;17737;52.586;13.284;2022-12-20T13:11:00;101009.13;;;7.49;84.93
31082;BME280;17737;52.586;13.284;2022-12-20T13:13:28;101004.19;;;7.35;85.59
31082;BME280;17737;52.586;13.284;2022-12-20T13:16:30;100993.63;;;7.33;85.43
31082;BME280;17737;52.586;13.284;2022-12-20T13:19:31;101009.56;;;7.35;85.02
31082;BME280;17737;52.586;13.284;2022-12-20T13:22:17;101006.75;;;7.26;85.39
31082;BME280;17737;52.586;13.284;2022-12-20T13:24:53;101002.50;;;7.24;84.77